Cap Felix — ONFH — position and weather

sailwx.info

Track history (hours):
 
Tides and Currents Weather Stations Pressure Air Temp Water Temp Dewpoint Dewpoint Depression Visibility Wind Speed Wind Dir Waves Ship Positions

Cap Felix

Last reported at 2016-May-14 22:31 UTC. Time now 2016-May-29 19:16 UTC.
Position S 40°58' E 148°58'.
Warning: this ship's position is 14 days out of date.

Length 275 m; draft 8.9 m.

Type: Tanker. MMSI: 205517000.

Date/timePositionNaut miles runAvg speedWind from/ knotsBaromVisibWave heightAir tempDewpointWater temp
2016-May-14 22:31S 40°58' E 148°58'21 8.9
2016-May-14 20:07S 40°48' E 148°33'5 9.0
2016-May-14 19:33S 40°46' E 148°27'8 8.5
2016-May-14 18:33S 40°43' E 148°17'7 7.0
2016-May-14 17:31S 40°40' E 148°08'52 7.4
2016-May-14 10:26S 40°07' E 147°15'1110.3
2016-May-14 09:20S 39°60' E 147°03'1013.1
2016-May-14 08:33S 39°53' E 146°53'10 9.9
2016-May-14 07:33S 39°47' E 146°43'3 2.5
2016-May-14 06:33S 39°45' E 146°40'7 7.1
2016-May-14 05:33S 39°41' E 146°33'1313.2
2016-May-14 04:33S 39°32' E 146°20'4413.1
2016-May-14 01:11S 39°04' E 145°37'  
Track history (hours):
 
Tides and Currents Weather Stations Pressure Air Temp Water Temp Dewpoint Dewpoint Depression Visibility Wind Speed Wind Dir Waves Ship Positions

Cap Felix

Last reported at 2016-May-14 22:31 UTC. Time now 2016-May-29 19:16 UTC.
Position S 40°58' E 148°58'.
Warning: this ship's position is 14 days out of date.

Length 275 m; draft 8.9 m.

Type: Tanker. MMSI: 205517000.

Date/timePositionNaut miles runAvg speedWind from/ knotsBaromVisibWave heightAir tempDewpointWater temp
2016-May-14 22:31S 40°58' E 148°58'21 8.9
2016-May-14 20:07S 40°48' E 148°33'5 9.0
2016-May-14 19:33S 40°46' E 148°27'8 8.5
2016-May-14 18:33S 40°43' E 148°17'7 7.0
2016-May-14 17:31S 40°40' E 148°08'52 7.4
2016-May-14 10:26S 40°07' E 147°15'1110.3
2016-May-14 09:20S 39°60' E 147°03'1013.1
2016-May-14 08:33S 39°53' E 146°53'10 9.9
2016-May-14 07:33S 39°47' E 146°43'3 2.5
2016-May-14 06:33S 39°45' E 146°40'7 7.1
2016-May-14 05:33S 39°41' E 146°33'1313.2
2016-May-14 04:33S 39°32' E 146°20'4413.1
2016-May-14 01:11S 39°04' E 145°37'  

Dump ship's entire track history